Pittston Township, Pennsylvania
Current Conditions -  °F | °C
As of 3:24 PM on Wednesday 26 Nov 2014 (Local Time) from KAVP Reporting Station
Light Snow Light Snow  
Wind Chill: -4°   Ceiling: 1100
Heat Index:   Visibility: 1mi
Dew Point: -1°   Wind: 10mph
Humidity: 92%   Direction: 290°WNW
Pressure: 29.94"   Gusts: NA
Location:  41.2973°N, 75.7399°W
Report Text: KAVP 262024Z 29009KT 1SM R04/P6000FT -SN BR FEW005 OVC011 01/M01 A2994 RMK AO2 P0001 T00061006
Loading
Personal Weather Stations






























Interactive Weather Map New forecast layout! Learn more

10-Day Weather Forecast

Advertisements
Track Severe Weather on mobile